createdAt,value
2019-01-31T00:00:05.210Z,78.74
2019-01-31T00:01:05.218Z,78.46
2019-01-31T00:02:05.243Z,79.09
2019-01-31T00:03:05.208Z,79.09
2019-01-31T00:04:05.247Z,78.88
2019-01-31T00:05:05.165Z,78.88
2019-01-31T00:06:05.149Z,78.56
2019-01-31T00:07:05.159Z,78.77
2019-01-31T00:08:05.191Z,78.53
2019-01-31T00:09:05.167Z,78.74
2019-01-31T00:10:05.167Z,78.85
2019-01-31T00:11:05.087Z,78.42
2019-01-31T00:12:05.104Z,78.67
2019-01-31T00:13:05.097Z,78.99
2019-01-31T00:14:05.096Z,78.88
2019-01-31T00:15:05.088Z,78.88
2019-01-31T00:16:05.049Z,78.74
2019-01-31T00:17:05.096Z,78.85
2019-01-31T00:19:06.083Z,78.77
2019-01-31T00:20:05.044Z,78.67
2019-01-31T00:21:04.981Z,78.56
2019-01-31T00:23:06.054Z,78.88
2019-01-31T00:24:04.967Z,78.88
2019-01-31T00:25:05.002Z,78.99
2019-01-31T00:26:04.975Z,78.88
2019-01-31T00:27:05.006Z,79.19
2019-01-31T00:28:06.970Z,78.99
2019-01-31T00:30:06.032Z,78.99
2019-01-31T00:31:04.898Z,79.09
2019-01-31T00:32:04.873Z,78.88
2019-01-31T00:33:04.874Z,78.77
2019-01-31T00:34:04.865Z,78.88
2019-01-31T00:35:04.883Z,79.09
2019-01-31T00:36:04.871Z,79.09
2019-01-31T00:37:04.835Z,78.88
2019-01-31T00:38:04.817Z,78.99
2019-01-31T00:39:04.847Z,78.99
2019-01-31T00:40:04.804Z,78.36
2019-01-31T00:42:05.866Z,78.88
2019-01-31T00:43:04.774Z,78.88
2019-01-31T00:44:04.755Z,78.88
2019-01-31T00:45:04.779Z,78.36
2019-01-31T00:46:04.738Z,78.67
2019-01-31T00:48:05.782Z,78.56
2019-01-31T00:49:25.705Z,78.32
2019-01-31T00:50:04.745Z,78.22
2019-01-31T00:51:04.662Z,78.46
2019-01-31T00:53:26.675Z,78.22
2019-01-31T00:54:04.650Z,78.32
2019-01-31T00:55:04.649Z,78.22
2019-01-31T00:56:25.656Z,78.67
2019-01-31T00:57:04.617Z,78.56
2019-01-31T00:58:04.612Z,78.77
2019-01-31T00:59:04.604Z,78.53
2019-01-31T01:00:04.592Z,78.25
2019-01-31T01:01:04.613Z,78.67
2019-01-31T01:02:04.560Z,78.46
2019-01-31T01:03:04.549Z,78.77
2019-01-31T01:05:05.604Z,78.67
2019-01-31T01:06:04.619Z,78.53
2019-01-31T01:07:04.589Z,78.63
2019-01-31T01:08:04.586Z,78.53
2019-01-31T01:09:07.849Z,78.36
2019-01-31T01:10:04.565Z,78.25
2019-01-31T01:11:04.502Z,78.63
2019-01-31T01:12:04.739Z,78.15
2019-01-31T01:13:04.486Z,78.56
2019-01-31T01:14:04.434Z,78.56
2019-01-31T01:15:04.427Z,78.77
2019-01-31T01:16:04.446Z,78.67
2019-01-31T01:17:04.414Z,78.67
2019-01-31T01:18:04.414Z,78.56
2019-01-31T01:19:04.402Z,78.46
2019-01-31T01:20:04.378Z,78.99
2019-01-31T01:21:04.522Z,78.88
2019-01-31T01:22:04.366Z,79.09
2019-01-31T01:23:04.352Z,79.09
2019-01-31T01:24:04.365Z,79.30
2019-01-31T01:25:04.368Z,78.99
2019-01-31T01:26:04.358Z,78.56
2019-01-31T01:27:04.327Z,78.88
2019-01-31T01:28:04.325Z,79.09
2019-01-31T01:29:04.332Z,78.77
2019-01-31T01:30:04.296Z,78.77
2019-01-31T01:31:04.314Z,78.67
2019-01-31T01:32:04.248Z,78.67
2019-01-31T01:33:04.242Z,78.77
2019-01-31T01:34:04.247Z,78.99
2019-01-31T01:35:04.240Z,78.99
2019-01-31T01:36:04.249Z,78.88
2019-01-31T01:37:04.192Z,78.88
2019-01-31T01:38:04.183Z,78.99
2019-01-31T01:39:04.176Z,78.88
2019-01-31T01:40:04.170Z,78.67
2019-01-31T01:41:04.178Z,78.99
2019-01-31T01:42:04.175Z,78.67
2019-01-31T01:43:04.134Z,78.67
2019-01-31T01:44:04.137Z,78.67
2019-01-31T01:45:04.118Z,78.67
2019-01-31T01:46:04.108Z,78.67
2019-01-31T01:47:04.146Z,78.77
2019-01-31T01:48:04.095Z,78.36
2019-01-31T01:49:04.068Z,78.46
2019-01-31T01:50:04.069Z,78.99
2019-01-31T01:51:04.060Z,78.56
2019-01-31T01:52:04.076Z,79.09
2019-01-31T01:53:04.066Z,78.88
2019-01-31T01:54:04.054Z,79.09
2019-01-31T01:55:04.004Z,78.77
2019-01-31T01:56:04.022Z,78.36
2019-01-31T01:57:04.074Z,78.56
2019-01-31T01:58:04.073Z,78.99
2019-01-31T01:59:04.009Z,79.19
2019-01-31T02:00:04.032Z,79.19
2019-01-31T02:02:05.048Z,78.46
2019-01-31T02:03:06.050Z,78.56
2019-01-31T02:04:03.933Z,78.56
2019-01-31T02:06:04.972Z,78.67
2019-01-31T02:07:03.974Z,78.36
2019-01-31T02:08:03.985Z,78.99
2019-01-31T02:09:03.945Z,78.88
2019-01-31T02:10:05.888Z,79.19
2019-01-31T02:11:03.898Z,78.77
2019-01-31T02:14:05.029Z,78.88
2019-01-31T02:15:03.905Z,78.88
2019-01-31T02:16:03.896Z,78.88
2019-01-31T02:17:03.812Z,78.88
2019-01-31T02:18:06.495Z,78.77
2019-01-31T02:20:04.852Z,78.88
2019-01-31T02:21:03.770Z,78.88
2019-01-31T02:22:03.742Z,78.99
2019-01-31T02:23:05.872Z,78.88
2019-01-31T02:24:03.777Z,79.09
2019-01-31T02:27:04.769Z,78.88
2019-01-31T02:28:10.566Z,78.77
2019-01-31T02:29:03.686Z,78.88
2019-01-31T02:30:07.728Z,78.67
2019-01-31T02:31:05.666Z,78.46
2019-01-31T02:32:03.627Z,78.56
2019-01-31T02:34:04.672Z,78.56
2019-01-31T02:35:05.680Z,78.77
2019-01-31T02:36:05.128Z,78.77
2019-01-31T02:37:03.594Z,78.77
2019-01-31T02:38:09.100Z,78.46
2019-01-31T02:39:06.614Z,78.77
2019-01-31T02:40:03.556Z,78.46
2019-01-31T02:41:03.558Z,78.67
2019-01-31T02:43:04.611Z,78.56
2019-01-31T02:44:03.516Z,78.67
2019-01-31T02:45:03.538Z,78.46
2019-01-31T02:46:05.496Z,78.88
2019-01-31T02:47:04.459Z,78.88
2019-01-31T02:48:03.535Z,78.88
2019-01-31T02:49:05.482Z,79.02
2019-01-31T02:51:04.490Z,78.67
2019-01-31T02:53:04.400Z,78.67
2019-01-31T02:55:04.522Z,78.91
2019-01-31T02:57:04.613Z,78.70
2019-01-31T02:58:29.022Z,78.99
2019-01-31T02:59:03.362Z,79.30
2019-01-31T03:00:03.379Z,79.09
2019-01-31T03:02:04.417Z,78.91
2019-01-31T03:05:16.066Z,78.99
2019-01-31T03:06:12.872Z,79.30
2019-01-31T03:08:13.906Z,79.30
2019-01-31T03:09:12.882Z,79.02
2019-01-31T03:10:12.854Z,79.02
2019-01-31T03:11:12.898Z,79.19
2019-01-31T03:14:13.840Z,79.40
2019-01-31T03:15:12.854Z,79.30
2019-01-31T03:16:12.726Z,79.02
2019-01-31T03:17:33.733Z,79.02
2019-01-31T03:18:12.729Z,79.33
2019-01-31T03:19:12.734Z,79.19
2019-01-31T03:20:12.676Z,78.99
2019-01-31T03:21:12.693Z,79.33
2019-01-31T03:22:14.712Z,79.02
2019-01-31T03:23:14.707Z,79.33
2019-01-31T03:24:13.731Z,79.40
2019-01-31T03:25:12.645Z,79.96
2019-01-31T03:26:12.606Z,79.44
2019-01-31T03:27:12.602Z,79.93
2019-01-31T03:28:14.648Z,79.86
2019-01-31T03:29:12.600Z,79.86
2019-01-31T03:30:12.591Z,79.82
2019-01-31T03:31:12.619Z,79.86
2019-01-31T03:32:12.564Z,79.64
2019-01-31T03:33:12.540Z,79.72
2019-01-31T03:34:12.554Z,79.93
2019-01-31T03:35:12.558Z,79.61
2019-01-31T03:36:12.550Z,79.19
2019-01-31T03:37:12.542Z,79.61
2019-01-31T03:38:12.482Z,79.61
2019-01-31T03:39:12.503Z,79.19
2019-01-31T03:40:12.483Z,79.19
2019-01-31T03:41:12.457Z,79.19
2019-01-31T03:42:12.486Z,79.40
2019-01-31T03:43:12.432Z,79.30
2019-01-31T03:44:12.469Z,79.19
2019-01-31T03:45:12.424Z,79.61
2019-01-31T03:46:12.416Z,79.19
2019-01-31T03:47:12.434Z,79.30
2019-01-31T03:48:12.373Z,78.99
2019-01-31T03:49:12.406Z,78.99
2019-01-31T03:50:14.391Z,78.99
2019-01-31T03:51:12.405Z,78.99
2019-01-31T03:54:13.410Z,79.19
2019-01-31T03:55:33.304Z,79.30
2019-01-31T03:56:12.301Z,79.09
2019-01-31T03:57:12.291Z,79.93
2019-01-31T03:59:14.888Z,79.19
2019-01-31T04:00:33.294Z,79.30
2019-01-31T04:01:12.281Z,78.88
2019-01-31T04:02:12.248Z,79.09
2019-01-31T04:03:14.275Z,79.50
2019-01-31T04:04:12.328Z,79.93
2019-01-31T04:05:12.234Z,79.93
2019-01-31T04:06:12.189Z,79.82
2019-01-31T04:07:12.276Z,79.93
2019-01-31T04:08:14.178Z,79.61
2019-01-31T04:09:12.182Z,79.61
2019-01-31T04:12:34.212Z,79.50
2019-01-31T04:13:12.122Z,79.50
2019-01-31T04:15:13.172Z,79.19
2019-01-31T04:16:12.152Z,79.50
2019-01-31T04:17:12.176Z,79.50
2019-01-31T04:18:33.162Z,80.03
2019-01-31T04:19:12.102Z,79.50
2019-01-31T04:20:12.156Z,79.82
2019-01-31T04:21:33.080Z,79.72
2019-01-31T04:22:15.026Z,79.72
2019-01-31T04:23:12.026Z,79.61
2019-01-31T04:24:12.068Z,79.61
2019-01-31T04:25:12.149Z,79.72
2019-01-31T04:27:13.214Z,79.40
2019-01-31T04:28:11.991Z,79.30
2019-01-31T04:30:13.193Z,79.72
2019-01-31T04:31:11.922Z,79.09
2019-01-31T04:32:11.921Z,79.82
2019-01-31T04:33:11.939Z,79.61
2019-01-31T04:36:12.958Z,79.72
2019-01-31T04:37:11.944Z,79.72
2019-01-31T04:38:20.162Z,79.30
2019-01-31T04:39:11.873Z,79.09
2019-01-31T04:40:15.032Z,79.05
2019-01-31T04:41:13.918Z,79.36
2019-01-31T04:42:11.833Z,79.30
2019-01-31T04:43:12.807Z,79.16
2019-01-31T04:44:11.793Z,79.47
2019-01-31T04:45:11.780Z,79.40
2019-01-31T04:46:13.324Z,79.26
2019-01-31T04:47:11.775Z,79.05
2019-01-31T04:48:11.737Z,78.67
2019-01-31T04:49:11.760Z,79.26
2019-01-31T04:50:11.746Z,78.99
2019-01-31T04:52:12.764Z,79.19
2019-01-31T04:53:11.734Z,79.05
2019-01-31T04:54:11.702Z,79.26
2019-01-31T04:56:12.840Z,79.50
2019-01-31T04:57:12.000Z,79.19
2019-01-31T04:58:11.714Z,79.26
2019-01-31T04:59:13.715Z,79.19
2019-01-31T05:00:11.638Z,79.26
2019-01-31T05:01:11.718Z,79.26
2019-01-31T05:02:11.597Z,79.30
2019-01-31T05:03:28.131Z,79.68
2019-01-31T05:04:11.578Z,79.26
2019-01-31T05:06:12.784Z,79.16
2019-01-31T05:07:11.610Z,79.61
2019-01-31T05:08:11.541Z,79.68
2019-01-31T05:09:11.547Z,79.68
2019-01-31T05:10:11.511Z,79.68
2019-01-31T05:12:12.734Z,79.36
2019-01-31T05:13:13.535Z,79.89
2019-01-31T05:14:11.473Z,79.79
2019-01-31T05:15:11.492Z,79.58
2019-01-31T05:16:11.525Z,79.58
2019-01-31T05:17:11.549Z,79.79
2019-01-31T05:18:11.525Z,79.68
2019-01-31T05:19:13.457Z,79.58
2019-01-31T05:20:11.556Z,79.61
2019-01-31T05:21:15.415Z,79.61
2019-01-31T05:22:13.382Z,79.93
2019-01-31T05:24:12.520Z,79.61
2019-01-31T05:25:11.370Z,79.58
2019-01-31T05:26:11.356Z,79.79
2019-01-31T05:27:11.361Z,79.79
2019-01-31T05:28:11.338Z,79.58
2019-01-31T05:29:11.365Z,79.47
2019-01-31T05:30:11.323Z,79.79
2019-01-31T05:32:13.811Z,79.99
2019-01-31T05:33:32.323Z,80.03
2019-01-31T05:34:34.262Z,79.89
2019-01-31T05:35:11.264Z,80.52
2019-01-31T05:36:11.258Z,80.45
2019-01-31T05:37:11.316Z,80.10
2019-01-31T05:38:11.258Z,80.20
2019-01-31T05:40:12.261Z,80.10
2019-01-31T05:41:32.195Z,80.13
2019-01-31T05:42:11.234Z,80.20
2019-01-31T05:43:11.179Z,80.10
2019-01-31T05:46:12.227Z,80.24
2019-01-31T05:49:32.705Z,80.10
2019-01-31T05:50:31.688Z,80.20
2019-01-31T05:51:31.681Z,80.52
2019-01-31T05:52:31.687Z,80.20
2019-01-31T05:55:32.634Z,80.31
2019-01-31T05:56:31.625Z,80.24
2019-01-31T05:57:31.651Z,80.31
2019-01-31T05:58:31.633Z,80.83
2019-01-31T05:59:31.602Z,80.73
2019-01-31T06:00:31.606Z,80.73
2019-01-31T06:01:31.573Z,80.73
2019-01-31T06:02:31.600Z,80.31
2019-01-31T06:03:31.567Z,80.62
2019-01-31T06:04:31.555Z,80.73
2019-01-31T06:05:31.534Z,80.73
2019-01-31T06:06:31.612Z,80.66
2019-01-31T06:07:33.236Z,80.73
2019-01-31T06:08:31.553Z,80.62
2019-01-31T06:09:31.506Z,80.41
2019-01-31T06:10:33.657Z,80.10
2019-01-31T06:11:31.475Z,80.20
2019-01-31T06:12:31.496Z,80.41
2019-01-31T06:13:31.458Z,80.45
2019-01-31T06:14:31.443Z,80.52
2019-01-31T06:15:31.518Z,80.66
2019-01-31T06:16:31.461Z,80.87
2019-01-31T06:17:31.462Z,80.31
2019-01-31T06:18:31.409Z,80.41
2019-01-31T06:19:31.391Z,80.83
2019-01-31T06:20:31.391Z,80.62
2019-01-31T06:21:31.413Z,80.66
2019-01-31T06:22:31.387Z,80.41
2019-01-31T06:23:31.498Z,80.24
2019-01-31T06:24:31.362Z,80.24
2019-01-31T06:25:31.363Z,80.35
2019-01-31T06:26:31.320Z,80.62
2019-01-31T06:27:31.322Z,80.62
2019-01-31T06:28:31.335Z,80.73
2019-01-31T06:29:31.304Z,80.41
2019-01-31T06:30:31.287Z,80.31
2019-01-31T06:31:31.277Z,80.83
2019-01-31T06:32:31.258Z,80.93
2019-01-31T06:33:31.278Z,80.20
2019-01-31T06:34:31.236Z,80.52
2019-01-31T06:35:31.232Z,80.62
2019-01-31T06:36:31.227Z,80.20
2019-01-31T06:37:31.264Z,79.89
2019-01-31T06:38:31.218Z,80.62
2019-01-31T06:39:31.218Z,79.96
2019-01-31T06:40:31.168Z,80.31
2019-01-31T06:41:31.177Z,80.27
2019-01-31T06:42:31.168Z,81.04
2019-01-31T06:43:31.173Z,81.00
2019-01-31T06:44:31.137Z,80.31
2019-01-31T06:45:31.123Z,81.00
2019-01-31T06:46:31.108Z,80.58
2019-01-31T06:47:31.105Z,80.48
2019-01-31T06:48:33.890Z,79.96
2019-01-31T06:49:31.085Z,80.58
2019-01-31T06:51:32.135Z,80.58
2019-01-31T06:52:52.091Z,80.69
2019-01-31T06:53:52.051Z,80.58
2019-01-31T06:54:31.113Z,81.00
2019-01-31T06:55:31.099Z,80.27
2019-01-31T06:57:32.103Z,80.62
2019-01-31T06:58:31.029Z,80.69
2019-01-31T06:59:30.977Z,80.58
2019-01-31T07:00:30.957Z,80.48
2019-01-31T07:01:30.959Z,79.85
2019-01-31T07:03:32.030Z,80.69
2019-01-31T07:04:30.919Z,80.69
2019-01-31T07:05:30.907Z,80.16
2019-01-31T07:06:30.896Z,80.27
2019-01-31T07:07:30.895Z,80.16
2019-01-31T07:09:31.960Z,79.96
2019-01-31T07:10:30.915Z,80.27
2019-01-31T07:11:30.911Z,79.96
2019-01-31T07:12:30.925Z,80.69
2019-01-31T07:13:33.734Z,79.96
2019-01-31T07:14:30.912Z,79.85
2019-01-31T07:15:30.821Z,81.00
2019-01-31T07:16:30.801Z,80.48
2019-01-31T07:17:30.813Z,80.27
2019-01-31T07:18:30.763Z,80.16
2019-01-31T07:19:30.828Z,80.27
2019-01-31T07:20:30.770Z,80.16
2019-01-31T07:21:30.737Z,80.06
2019-01-31T07:22:30.742Z,80.27
2019-01-31T07:23:30.719Z,80.13
2019-01-31T07:24:30.727Z,80.02
2019-01-31T07:25:30.700Z,80.34
2019-01-31T07:26:30.694Z,80.06
2019-01-31T07:27:30.714Z,80.06
2019-01-31T07:28:30.720Z,79.29
2019-01-31T07:29:30.732Z,79.82
2019-01-31T07:30:30.663Z,79.61
2019-01-31T07:31:30.639Z,79.40
2019-01-31T07:32:30.643Z,79.71
2019-01-31T07:33:30.613Z,79.40
2019-01-31T07:34:30.629Z,79.71
2019-01-31T07:35:30.607Z,79.19
2019-01-31T07:36:30.571Z,79.29
2019-01-31T07:37:30.575Z,79.19
2019-01-31T07:38:30.575Z,79.50
2019-01-31T07:39:30.588Z,78.77
2019-01-31T07:40:30.533Z,79.19
2019-01-31T07:41:40.683Z,79.29
2019-01-31T07:42:31.522Z,79.19
2019-01-31T07:43:30.512Z,79.08
2019-01-31T07:44:30.525Z,79.08
2019-01-31T07:45:30.535Z,79.19
2019-01-31T07:46:30.465Z,79.29
2019-01-31T07:47:30.473Z,79.92
2019-01-31T07:48:30.450Z,79.29
2019-01-31T07:49:30.449Z,79.71
2019-01-31T07:50:30.476Z,79.50
2019-01-31T07:51:30.429Z,79.61
2019-01-31T07:52:30.406Z,79.15
2019-01-31T07:53:30.401Z,79.08
2019-01-31T07:54:30.413Z,78.98
2019-01-31T07:55:30.421Z,78.98
2019-01-31T07:56:30.369Z,79.29
2019-01-31T07:57:30.397Z,79.08
2019-01-31T07:58:30.354Z,78.98
2019-01-31T07:59:30.352Z,78.88
2019-01-31T08:00:30.352Z,79.29
2019-01-31T08:01:30.332Z,78.98
2019-01-31T08:02:30.476Z,79.50
2019-01-31T08:03:30.285Z,79.29
2019-01-31T08:04:30.281Z,79.40
2019-01-31T08:05:30.343Z,78.88
2019-01-31T08:06:30.284Z,78.88
2019-01-31T08:07:30.267Z,78.98
2019-01-31T08:08:30.316Z,78.84
2019-01-31T08:09:30.227Z,79.05
2019-01-31T08:10:30.291Z,79.08
2019-01-31T08:11:30.213Z,78.94
2019-01-31T08:12:30.239Z,78.88
2019-01-31T08:13:30.210Z,79.26
2019-01-31T08:14:30.199Z,78.56
2019-01-31T08:15:30.212Z,78.53
2019-01-31T08:16:30.160Z,78.94
2019-01-31T08:17:30.224Z,78.94
2019-01-31T08:18:30.148Z,78.53
2019-01-31T08:19:30.154Z,78.63
2019-01-31T08:20:30.147Z,78.32
2019-01-31T08:21:30.105Z,78.63
2019-01-31T08:22:30.095Z,78.21
2019-01-31T08:23:30.092Z,78.11
2019-01-31T08:24:30.075Z,78.32
2019-01-31T08:25:30.095Z,78.11
2019-01-31T08:26:30.094Z,78.39
2019-01-31T08:27:30.069Z,78.28
2019-01-31T08:28:30.024Z,78.18
2019-01-31T08:29:30.008Z,78.18
2019-01-31T08:30:30.011Z,77.97
2019-01-31T08:31:30.026Z,77.66
2019-01-31T08:32:29.983Z,77.66
2019-01-31T08:33:29.978Z,77.86
2019-01-31T08:34:29.980Z,77.76
2019-01-31T08:35:29.951Z,77.76
2019-01-31T08:36:29.972Z,77.55
2019-01-31T08:37:29.928Z,77.51
2019-01-31T08:38:29.927Z,77.34
2019-01-31T08:39:29.920Z,77.66
2019-01-31T08:40:29.910Z,77.31
2019-01-31T08:41:29.906Z,77.34
2019-01-31T08:42:29.939Z,76.89
2019-01-31T08:43:29.864Z,77.00
2019-01-31T08:44:29.863Z,76.89
2019-01-31T08:45:29.844Z,77.41
2019-01-31T08:46:29.866Z,77.10
2019-01-31T08:47:29.826Z,77.10
2019-01-31T08:48:29.830Z,76.79
2019-01-31T08:49:29.835Z,77.00
2019-01-31T08:50:29.792Z,77.20
2019-01-31T08:51:29.802Z,77.10
2019-01-31T08:52:29.764Z,77.20
2019-01-31T08:53:29.768Z,77.20
2019-01-31T08:55:30.737Z,76.89
2019-01-31T08:56:29.753Z,76.68
2019-01-31T08:57:29.725Z,76.47
2019-01-31T08:58:29.710Z,76.37
2019-01-31T08:59:29.698Z,76.43
2019-01-31T09:00:29.724Z,76.26
2019-01-31T09:01:29.718Z,76.47
2019-01-31T09:02:29.669Z,76.43
2019-01-31T09:03:29.656Z,76.26
2019-01-31T09:04:29.641Z,76.23
2019-01-31T09:05:29.646Z,76.37
2019-01-31T09:06:29.643Z,76.79
2019-01-31T09:07:29.662Z,76.23
2019-01-31T09:08:29.597Z,76.23
2019-01-31T09:09:29.592Z,76.02
2019-01-31T09:10:29.585Z,76.54
2019-01-31T09:11:29.582Z,76.43
2019-01-31T09:12:29.605Z,76.43
2019-01-31T09:13:29.546Z,76.23
2019-01-31T09:14:29.539Z,76.09
2019-01-31T09:15:29.534Z,75.67
2019-01-31T09:16:29.531Z,75.15
2019-01-31T09:17:29.530Z,75.67
2019-01-31T09:18:29.524Z,74.63
2019-01-31T09:19:29.486Z,74.74
2019-01-31T09:20:29.472Z,75.05
2019-01-31T09:21:29.470Z,75.01
2019-01-31T09:22:29.482Z,74.95
2019-01-31T09:23:29.460Z,74.91
2019-01-31T09:24:29.463Z,74.18
2019-01-31T09:25:29.416Z,73.86
2019-01-31T09:26:29.416Z,75.01
2019-01-31T09:27:29.460Z,74.49
2019-01-31T09:28:29.407Z,74.63
2019-01-31T09:29:29.462Z,75.22
2019-01-31T09:30:29.396Z,74.91
2019-01-31T09:31:29.387Z,75.01
2019-01-31T09:32:29.374Z,74.80
2019-01-31T09:33:29.340Z,74.80
2019-01-31T09:34:29.362Z,75.05
2019-01-31T09:35:29.347Z,75.36
2019-01-31T09:36:29.317Z,75.57
2019-01-31T09:37:29.316Z,75.71
2019-01-31T09:38:29.306Z,75.26
2019-01-31T09:39:29.274Z,76.12
2019-01-31T09:40:29.286Z,76.02
2019-01-31T09:41:29.250Z,75.36
2019-01-31T09:42:29.288Z,76.30
2019-01-31T09:43:29.240Z,75.60
2019-01-31T09:44:29.266Z,75.36
2019-01-31T09:45:29.226Z,76.20
2019-01-31T09:46:29.227Z,76.20
2019-01-31T09:47:31.684Z,75.67
2019-01-31T09:48:29.197Z,75.26
2019-01-31T09:49:29.193Z,75.67
2019-01-31T09:50:29.154Z,75.46
2019-01-31T09:51:29.162Z,75.78
2019-01-31T09:52:29.164Z,75.53
2019-01-31T09:53:29.171Z,75.32
2019-01-31T09:54:29.118Z,75.43
2019-01-31T09:55:29.103Z,74.80
2019-01-31T09:56:29.094Z,74.80
2019-01-31T09:57:29.096Z,74.70
2019-01-31T09:58:29.096Z,75.22
2019-01-31T09:59:29.068Z,75.22
2019-01-31T10:00:29.048Z,74.66
2019-01-31T10:01:29.058Z,73.83
2019-01-31T10:02:29.027Z,73.94
2019-01-31T10:03:29.043Z,74.43
2019-01-31T10:04:29.036Z,73.83
2019-01-31T10:05:28.994Z,73.94
2019-01-31T10:06:28.988Z,74.32
2019-01-31T10:07:28.978Z,74.01
2019-01-31T10:08:28.977Z,74.01
2019-01-31T10:09:28.965Z,73.80
2019-01-31T10:10:28.982Z,73.83
2019-01-31T10:11:28.999Z,73.80
2019-01-31T10:12:37.902Z,73.90
2019-01-31T10:13:29.993Z,74.63
2019-01-31T10:14:28.993Z,73.90
2019-01-31T10:15:28.909Z,73.69
2019-01-31T10:16:28.915Z,73.80
2019-01-31T10:17:28.897Z,74.01
2019-01-31T10:18:28.925Z,73.80
2019-01-31T10:19:28.932Z,73.35
2019-01-31T10:20:28.880Z,73.66
2019-01-31T10:21:28.853Z,73.14
2019-01-31T10:22:28.842Z,73.25
2019-01-31T10:23:28.926Z,73.14
2019-01-31T10:24:28.800Z,73.03
2019-01-31T10:26:29.841Z,73.03
2019-01-31T10:28:50.814Z,73.03
2019-01-31T10:29:28.745Z,73.03
2019-01-31T10:30:28.745Z,73.25
2019-01-31T10:31:28.721Z,72.59
2019-01-31T10:32:28.727Z,72.59
2019-01-31T10:33:28.718Z,72.90
2019-01-31T10:34:28.724Z,72.80
2019-01-31T10:35:28.682Z,72.90
2019-01-31T10:36:28.674Z,72.90
2019-01-31T10:37:28.664Z,72.49
2019-01-31T10:38:28.682Z,72.38
2019-01-31T10:39:28.672Z,72.07
2019-01-31T10:40:28.632Z,72.59
2019-01-31T10:41:28.623Z,72.38
2019-01-31T10:42:28.605Z,72.38
2019-01-31T10:43:28.606Z,72.38
2019-01-31T10:44:28.616Z,72.28
2019-01-31T10:45:28.594Z,71.83
2019-01-31T10:46:28.552Z,72.07
2019-01-31T10:47:28.550Z,71.83
2019-01-31T10:48:28.550Z,71.51
2019-01-31T10:49:28.586Z,71.51
2019-01-31T10:50:28.544Z,71.62
2019-01-31T10:51:28.552Z,71.83
2019-01-31T10:52:28.503Z,71.83
2019-01-31T10:53:28.504Z,71.48
2019-01-31T10:54:28.499Z,70.97
2019-01-31T10:55:28.473Z,70.54
2019-01-31T10:56:28.591Z,70.54
2019-01-31T10:57:28.440Z,70.65
2019-01-31T10:58:28.445Z,70.72
2019-01-31T10:59:28.494Z,70.65
2019-01-31T11:00:28.416Z,70.10
2019-01-31T11:01:28.403Z,69.79
2019-01-31T11:02:28.443Z,68.96
2019-01-31T11:03:28.383Z,69.06
2019-01-31T11:04:28.418Z,69.68
2019-01-31T11:05:28.377Z,69.06
2019-01-31T11:06:28.362Z,69.17
2019-01-31T11:07:28.348Z,68.96
2019-01-31T11:08:28.352Z,69.17
2019-01-31T11:09:28.363Z,69.58
2019-01-31T11:10:28.305Z,69.17
2019-01-31T11:11:28.305Z,69.06
2019-01-31T11:12:28.295Z,69.48
2019-01-31T11:13:28.294Z,69.37
2019-01-31T11:14:28.306Z,69.06
2019-01-31T11:15:28.257Z,69.03
2019-01-31T11:16:28.243Z,69.13
2019-01-31T11:17:28.348Z,69.24
2019-01-31T11:18:28.230Z,68.62
2019-01-31T11:19:28.231Z,68.62
2019-01-31T11:20:28.233Z,68.17
2019-01-31T11:21:28.179Z,68.62
2019-01-31T11:22:28.206Z,68.30
2019-01-31T11:23:28.172Z,68.48
2019-01-31T11:24:28.176Z,68.38
2019-01-31T11:25:28.192Z,68.17
2019-01-31T11:26:28.170Z,67.86
2019-01-31T11:27:28.123Z,67.72
2019-01-31T11:28:28.119Z,67.48
2019-01-31T11:29:28.110Z,66.80
2019-01-31T11:30:28.122Z,64.43
2019-01-31T11:31:28.109Z,61.32
2019-01-31T11:32:28.062Z,59.17
2019-01-31T11:33:28.071Z,57.14
2019-01-31T11:34:32.995Z,54.59
2019-01-31T11:35:29.333Z,54.05
2019-01-31T11:36:28.037Z,53.35
2019-01-31T11:37:28.046Z,53.12
2019-01-31T11:38:28.005Z,52.71
2019-01-31T11:39:28.017Z,52.17
2019-01-31T11:40:28.008Z,51.43
2019-01-31T11:41:27.985Z,50.71
2019-01-31T11:42:27.964Z,51.12
2019-01-31T11:43:27.959Z,50.71
2019-01-31T11:44:27.946Z,50.51
2019-01-31T11:45:27.974Z,50.05
2019-01-31T11:46:27.920Z,49.02
2019-01-31T11:47:27.918Z,48.57
2019-01-31T11:48:27.918Z,47.83
2019-01-31T11:49:27.880Z,47.38
2019-01-31T11:50:27.915Z,46.35
2019-01-31T11:51:27.862Z,46.89
2019-01-31T11:52:27.873Z,46.72
2019-01-31T11:53:27.858Z,47.44
2019-01-31T11:54:27.853Z,47.63
2019-01-31T11:55:27.864Z,46.33
2019-01-31T11:56:27.823Z,45.57
2019-01-31T11:57:27.799Z,45.02
2019-01-31T11:58:27.810Z,44.57
2019-01-31T11:59:27.772Z,44.65
2019-01-31T12:00:27.776Z,45.68
2019-01-31T12:01:27.783Z,48.13
2019-01-31T12:02:27.755Z,50.45
2019-01-31T12:03:27.735Z,51.63
2019-01-31T12:04:27.733Z,52.81
2019-01-31T12:05:27.738Z,54.51
2019-01-31T12:06:27.802Z,54.94
2019-01-31T12:07:27.691Z,55.59
2019-01-31T12:08:27.808Z,56.21
2019-01-31T12:09:27.671Z,55.77
2019-01-31T12:10:27.669Z,54.46
2019-01-31T12:11:27.684Z,53.09
2019-01-31T12:12:27.645Z,52.22
2019-01-31T12:13:27.658Z,51.30
2019-01-31T12:14:27.615Z,50.70
2019-01-31T12:15:27.632Z,51.76
2019-01-31T12:16:27.789Z,52.81
2019-01-31T12:17:27.594Z,54.74
2019-01-31T12:18:27.585Z,54.97
2019-01-31T12:19:27.596Z,56.46
2019-01-31T12:20:27.553Z,57.01
2019-01-31T12:21:27.562Z,57.86
2019-01-31T12:22:27.546Z,58.51
2019-01-31T12:23:27.525Z,59.00
2019-01-31T12:24:27.506Z,58.89
2019-01-31T12:25:27.499Z,58.01
2019-01-31T12:26:27.520Z,56.41
2019-01-31T12:27:27.486Z,55.69
2019-01-31T12:28:27.466Z,56.85
2019-01-31T12:29:27.467Z,56.75
2019-01-31T12:30:27.445Z,56.57
2019-01-31T12:31:27.477Z,57.84
2019-01-31T12:32:27.427Z,57.94
2019-01-31T12:33:27.428Z,58.48
2019-01-31T12:34:27.413Z,59.41
2019-01-31T12:35:27.399Z,59.00
2019-01-31T12:36:27.399Z,59.23
2019-01-31T12:37:27.378Z,59.13
2019-01-31T12:38:36.554Z,59.36
2019-01-31T12:39:28.351Z,60.09
2019-01-31T12:40:27.333Z,59.78
2019-01-31T12:41:27.348Z,59.57
2019-01-31T12:42:27.317Z,59.60
2019-01-31T12:43:34.768Z,59.67
2019-01-31T12:44:28.289Z,59.60
2019-01-31T12:45:27.278Z,58.77
2019-01-31T12:46:27.309Z,59.19
2019-01-31T12:47:27.259Z,58.87
2019-01-31T12:48:27.251Z,59.39
2019-01-31T12:49:27.303Z,59.31
2019-01-31T12:50:27.242Z,60.25
2019-01-31T12:51:27.267Z,59.63
2019-01-31T12:52:27.211Z,59.94
2019-01-31T12:53:27.208Z,59.83
2019-01-31T12:54:27.184Z,60.14
2019-01-31T12:55:27.180Z,59.86
2019-01-31T12:56:27.179Z,60.38
2019-01-31T12:57:27.189Z,59.86
2019-01-31T12:58:33.726Z,60.38
2019-01-31T12:59:28.147Z,59.66
2019-01-31T13:00:27.127Z,60.17
2019-01-31T13:01:27.114Z,60.27
2019-01-31T13:02:27.136Z,60.06
2019-01-31T13:03:27.121Z,60.06
2019-01-31T13:04:27.077Z,60.79
2019-01-31T13:05:27.090Z,60.82
2019-01-31T13:06:27.063Z,61.44
2019-01-31T13:07:27.105Z,61.55
2019-01-31T13:08:27.182Z,61.03
2019-01-31T13:09:28.340Z,61.24
2019-01-31T13:10:27.011Z,61.34
2019-01-31T13:11:27.040Z,61.44
2019-01-31T13:12:27.011Z,60.82
2019-01-31T13:13:27.005Z,59.78
2019-01-31T13:14:28.504Z,60.12
2019-01-31T13:15:29.355Z,60.20
2019-01-31T13:16:26.953Z,60.02
2019-01-31T13:17:26.982Z,60.61
2019-01-31T13:18:26.947Z,60.41
2019-01-31T13:19:26.913Z,60.51
2019-01-31T13:20:26.919Z,60.74
2019-01-31T13:21:26.901Z,60.85
2019-01-31T13:22:26.915Z,60.53
2019-01-31T13:23:26.881Z,60.74
2019-01-31T13:24:26.882Z,61.16
2019-01-31T13:25:26.851Z,60.95
2019-01-31T13:26:27.168Z,61.36
2019-01-31T13:27:26.843Z,61.68
2019-01-31T13:28:26.849Z,61.99
2019-01-31T13:29:26.817Z,60.85
2019-01-31T13:30:26.823Z,61.26
2019-01-31T13:31:26.787Z,61.26
2019-01-31T13:32:26.796Z,60.33
2019-01-31T13:33:26.796Z,60.43
2019-01-31T13:34:26.750Z,60.85
2019-01-31T13:35:26.747Z,61.36
2019-01-31T13:36:26.761Z,61.26
2019-01-31T13:37:26.718Z,61.26
2019-01-31T13:38:27.014Z,61.26
2019-01-31T13:39:26.993Z,61.16
2019-01-31T13:40:26.691Z,61.05
2019-01-31T13:41:26.689Z,61.05
2019-01-31T13:42:26.661Z,59.89
2019-01-31T13:43:26.673Z,60.64
2019-01-31T13:44:26.655Z,60.43
2019-01-31T13:45:26.630Z,61.05
2019-01-31T13:46:26.627Z,61.13
2019-01-31T13:47:26.614Z,61.86
2019-01-31T13:48:26.632Z,62.27